Terminal Aerodrome Forecast
Issued by NWS Kansas City/Pleasant Hill, MO

Home | Current Version | Previous Version | Text Only | Print | Product List | Glossary On
Versions: 1 2 3 4 5 6 7 8 9 10 11 12 13 14 15 16 17 18 19 20 21 22
000
FTUS43 KEAX 260500
TAFMCI
TAF
KMCI 260520Z 2606/2706 36010KT P6SM BKN100
     FM261200 35009KT P6SM FEW250
     FM270000 36008KT P6SM OVC080
     FM270400 01005KT P6SM VCSH OVC025=

USA.gov is the U.S. government's official web portal to all federal, state and local government web resources and services.